Ubc Bremen — P3ZA7 — position and weather

sailwx.info

Track history (hours):
 
Tides and Currents Weather Stations Pressure Air Temp Water Temp Dewpoint Dewpoint Depression Visibility Wind Speed Wind Dir Waves Ship Positions

Ubc Bremen

Last reported at 2014-Nov-01 00:32 UTC. Time now 2014-Nov-01 01:17 UTC.
Position S 23°58' W 046°18'.

Length 154 m; draft 8.8 m.

Type: Cargo ship. MMSI: 21260200.

Date/timePositionNaut miles runAvg speedWind from/ knotsBaromVisibWave heightAir tempDewpointWater temp
2014-Nov-01 00:32S 23°58' W 046°18'0 0.0
2014-Oct-31 23:29S 23°58' W 046°18'0 0.0
2014-Oct-31 22:32S 23°58' W 046°18'0 0.0
2014-Oct-31 21:32S 23°58' W 046°18'0 0.0
2014-Oct-31 20:29S 23°58' W 046°18'0 0.0
2014-Oct-31 19:32S 23°58' W 046°18'0 0.0
2014-Oct-31 18:32S 23°58' W 046°18'0 0.0
2014-Oct-31 17:31S 23°58' W 046°18'0 0.0
2014-Oct-31 16:31S 23°58' W 046°18'0 0.0
2014-Oct-31 15:22S 23°58' W 046°18'0 0.0
2014-Oct-31 14:33S 23°58' W 046°18'0 0.0
2014-Oct-31 13:28S 23°58' W 046°18'0 0.0
2014-Oct-31 12:28S 23°58' W 046°18'0 0.0
2014-Oct-31 11:31S 23°58' W 046°18'0 0.0
2014-Oct-31 10:27S 23°58' W 046°18'0 0.0
2014-Oct-31 09:30S 23°58' W 046°18'3 3.3
2014-Oct-31 08:33S 24°00' W 046°20'8 6.2
2014-Oct-31 07:20S 24°08' W 046°19'0 0.0
2014-Oct-31 06:11S 24°08' W 046°19'0 0.0
2014-Oct-31 02:22S 24°08' W 046°19'0 0.0
2014-Oct-31 01:31S 24°08' W 046°19'0 0.0
2014-Oct-31 00:28S 24°08' W 046°19'1 1.1
2014-Oct-30 23:31S 24°08' W 046°18'  
Track history (hours):
 
Tides and Currents Weather Stations Pressure Air Temp Water Temp Dewpoint Dewpoint Depression Visibility Wind Speed Wind Dir Waves Ship Positions

Ubc Bremen

Last reported at 2014-Nov-01 00:32 UTC. Time now 2014-Nov-01 01:17 UTC.
Position S 23°58' W 046°18'.

Length 154 m; draft 8.8 m.

Type: Cargo ship. MMSI: 21260200.

Date/timePositionNaut miles runAvg speedWind from/ knotsBaromVisibWave heightAir tempDewpointWater temp
2014-Nov-01 00:32S 23°58' W 046°18'0 0.0
2014-Oct-31 23:29S 23°58' W 046°18'0 0.0
2014-Oct-31 22:32S 23°58' W 046°18'0 0.0
2014-Oct-31 21:32S 23°58' W 046°18'0 0.0
2014-Oct-31 20:29S 23°58' W 046°18'0 0.0
2014-Oct-31 19:32S 23°58' W 046°18'0 0.0
2014-Oct-31 18:32S 23°58' W 046°18'0 0.0
2014-Oct-31 17:31S 23°58' W 046°18'0 0.0
2014-Oct-31 16:31S 23°58' W 046°18'0 0.0
2014-Oct-31 15:22S 23°58' W 046°18'0 0.0
2014-Oct-31 14:33S 23°58' W 046°18'0 0.0
2014-Oct-31 13:28S 23°58' W 046°18'0 0.0
2014-Oct-31 12:28S 23°58' W 046°18'0 0.0
2014-Oct-31 11:31S 23°58' W 046°18'0 0.0
2014-Oct-31 10:27S 23°58' W 046°18'0 0.0
2014-Oct-31 09:30S 23°58' W 046°18'3 3.3
2014-Oct-31 08:33S 24°00' W 046°20'8 6.2
2014-Oct-31 07:20S 24°08' W 046°19'0 0.0
2014-Oct-31 06:11S 24°08' W 046°19'0 0.0
2014-Oct-31 02:22S 24°08' W 046°19'0 0.0
2014-Oct-31 01:31S 24°08' W 046°19'0 0.0
2014-Oct-31 00:28S 24°08' W 046°19'1 1.1
2014-Oct-30 23:31S 24°08' W 046°18'  

Dump ship's entire track history